Sapulpa, Oklahoma
Current Conditions -  °F | °C
As of 9:53 AM on Monday 24 Nov 2014 (Local Time) from KRVS Reporting Station
Clear Clear  
Wind Chill: 43°   Ceiling: Unl
Heat Index: 47°   Visibility: 10mi
Dew Point: 27°   Wind: 8mph
Humidity: 46%   Direction: 290°WNW
Pressure: 29.93"   Gusts: NA
Location:  36°N, 96.11°W
Report Text: KRVS 241553Z 29007KT 240V320 10SM CLR 08/M03 A2993 RMK AO2 SLP141 T00831028
Loading
Personal Weather Stations






























Interactive Weather Map New forecast layout! Learn more

10-Day Weather Forecast

Advertisements
Track Severe Weather on mobile